createdAt,value
2023-05-11T00:02:21.318Z,100002.09
2023-05-11T00:04:49.845Z,100001.12
2023-05-11T00:07:17.866Z,100003.59
2023-05-11T00:09:46.049Z,99998.81
2023-05-11T00:12:14.867Z,99996.19
2023-05-11T00:14:42.999Z,99993.59
2023-05-11T00:17:11.895Z,100003.75
2023-05-11T00:19:40.615Z,99998.66
2023-05-11T00:22:09.232Z,100000.28
2023-05-11T00:24:37.380Z,100008.31
2023-05-11T00:27:06.163Z,100000.78
2023-05-11T00:29:34.353Z,99994.59
2023-05-11T00:32:02.479Z,99993.44
2023-05-11T00:34:32.101Z,100000.78
2023-05-11T00:37:00.524Z,100000.94
2023-05-11T00:39:28.554Z,99991.31
2023-05-11T00:41:57.325Z,99988.53
2023-05-11T00:44:25.777Z,99984.78
2023-05-11T00:46:54.131Z,99982.31
2023-05-11T00:49:23.297Z,99987.88
2023-05-11T00:51:52.063Z,99990.12
2023-05-11T00:54:20.481Z,99990.09
2023-05-11T00:56:48.941Z,99992.38
2023-05-11T00:59:17.176Z,99989.56
2023-05-11T01:01:45.671Z,99990.84
2023-05-11T01:04:14.412Z,99991.69
2023-05-11T01:07:07.017Z,99993.94
2023-05-11T01:09:54.027Z,99989.22
2023-05-11T01:12:48.550Z,99995.88
2023-05-11T01:15:44.397Z,99993.34
2023-05-11T01:18:33.206Z,100000.81
2023-05-11T01:21:03.241Z,99991.06
2023-05-11T01:23:43.721Z,99991.38
2023-05-11T01:26:15.407Z,99995.22
2023-05-11T01:29:11.176Z,99989.84
2023-05-11T01:31:45.113Z,99987.16
2023-05-11T01:34:18.413Z,99994.66
2023-05-11T01:36:54.776Z,99992.38
2023-05-11T01:39:35.408Z,99991.66
2023-05-11T01:42:08.640Z,99996.81
2023-05-11T01:44:42.632Z,99998.09
2023-05-11T01:47:13.280Z,99996.31
2023-05-11T01:49:44.218Z,99990.81
2023-05-11T01:52:15.793Z,99991.81
2023-05-11T01:54:45.326Z,99991.72
2023-05-11T01:57:15.392Z,99987.00
2023-05-11T01:59:45.080Z,99990.66
2023-05-11T02:02:14.990Z,99991.44
2023-05-11T02:04:44.849Z,99978.53
2023-05-11T02:07:16.582Z,99980.94
2023-05-11T02:09:47.398Z,99986.41
2023-05-11T02:12:20.208Z,99976.97
2023-05-11T02:14:51.322Z,99976.59
2023-05-11T02:17:23.030Z,99982.34
2023-05-11T02:19:52.447Z,99971.69
2023-05-11T02:22:24.010Z,99976.75
2023-05-11T02:24:52.359Z,99970.13
2023-05-11T02:27:20.841Z,99973.62
2023-05-11T02:29:49.267Z,99970.59
2023-05-11T02:32:21.934Z,99959.00
2023-05-11T02:34:58.725Z,99971.97
2023-05-11T02:37:28.567Z,99962.37
2023-05-11T02:40:10.225Z,99977.50
2023-05-11T02:42:41.376Z,99961.53
2023-05-11T02:45:12.268Z,99963.72
2023-05-11T02:47:46.109Z,99965.56
2023-05-11T02:50:19.482Z,99967.25
2023-05-11T02:52:49.524Z,99958.75
2023-05-11T02:55:20.201Z,99961.84
2023-05-11T02:57:49.061Z,99956.00
2023-05-11T03:00:18.379Z,99959.69
2023-05-11T03:02:48.463Z,99952.53
2023-05-11T03:05:17.812Z,99953.41
2023-05-11T03:07:47.809Z,99948.94
2023-05-11T03:10:16.260Z,99951.25
2023-05-11T03:12:45.913Z,99949.75
2023-05-11T03:15:16.090Z,99945.81
2023-05-11T03:17:47.033Z,99956.81
2023-05-11T03:20:17.691Z,99958.97
2023-05-11T03:22:47.296Z,99957.81
2023-05-11T03:25:17.435Z,99962.59
2023-05-11T03:27:47.051Z,99960.53
2023-05-11T03:30:16.879Z,99960.63
2023-05-11T03:32:45.435Z,99968.81
2023-05-11T03:35:13.737Z,99973.75
2023-05-11T03:37:43.169Z,99969.06
2023-05-11T03:40:13.355Z,99962.87
2023-05-11T03:42:44.873Z,99968.97
2023-05-11T03:45:16.789Z,99967.03
2023-05-11T03:47:46.881Z,99972.59
2023-05-11T03:50:16.901Z,99971.59
2023-05-11T03:52:45.563Z,99973.66
2023-05-11T03:55:13.936Z,99965.09
2023-05-11T03:57:43.056Z,99968.63
2023-05-11T04:00:11.814Z,99974.22
2023-05-11T04:02:43.319Z,99977.00
2023-05-11T04:05:13.307Z,99978.50
2023-05-11T04:07:41.725Z,99978.87
2023-05-11T04:10:10.391Z,99981.25
2023-05-11T04:12:38.846Z,99978.66
2023-05-11T04:15:07.398Z,99987.97
2023-05-11T04:17:35.658Z,99981.50
2023-05-11T04:20:04.453Z,99981.75
2023-05-11T04:22:32.950Z,99985.31
2023-05-11T04:25:01.225Z,99992.78
2023-05-11T04:27:33.999Z,99991.69
2023-05-11T04:30:02.554Z,99995.09
2023-05-11T04:32:31.675Z,99992.16
2023-05-11T04:34:59.851Z,99994.06
2023-05-11T04:37:28.570Z,99999.53
2023-05-11T04:39:58.089Z,99995.16
2023-05-11T04:42:26.215Z,99998.19
2023-05-11T04:44:55.230Z,100004.81
2023-05-11T04:47:23.592Z,100003.63
2023-05-11T04:49:52.071Z,100008.94
2023-05-11T04:52:20.460Z,100008.62
2023-05-11T04:54:49.039Z,100008.69
2023-05-11T04:57:18.014Z,100012.50
2023-05-11T04:59:47.460Z,100015.25
2023-05-11T05:02:15.904Z,100020.25
2023-05-11T05:04:44.064Z,100017.72
2023-05-11T05:07:13.125Z,100017.03
2023-05-11T05:09:44.478Z,100022.00
2023-05-11T05:12:13.604Z,100016.19
2023-05-11T05:14:42.305Z,100020.94
2023-05-11T05:17:10.525Z,100022.34
2023-05-11T05:19:41.204Z,100019.56
2023-05-11T05:22:09.870Z,100018.28
2023-05-11T05:24:38.209Z,100025.00
2023-05-11T05:27:06.462Z,100029.84
2023-05-11T05:29:35.073Z,100018.38
2023-05-11T05:32:03.110Z,100027.88
2023-05-11T05:34:31.328Z,100036.25
2023-05-11T05:36:59.982Z,100042.66
2023-05-11T05:39:28.549Z,100025.06
2023-05-11T05:41:57.159Z,100023.94
2023-05-11T05:44:25.859Z,100027.88
2023-05-11T05:46:54.373Z,100033.47
2023-05-11T05:49:22.673Z,100032.97
2023-05-11T05:51:52.382Z,100032.69
2023-05-11T05:54:20.520Z,100033.22
2023-05-11T05:56:50.491Z,100038.13
2023-05-11T05:59:23.394Z,100033.91
2023-05-11T06:01:51.910Z,100038.16
2023-05-11T06:04:21.480Z,100034.41
2023-05-11T06:06:49.901Z,100034.06
2023-05-11T06:09:18.318Z,100035.09
2023-05-11T06:11:46.888Z,100043.28
2023-05-11T06:14:15.145Z,100042.31
2023-05-11T06:16:43.392Z,100040.84
2023-05-11T06:19:13.382Z,100051.28
2023-05-11T06:21:43.757Z,100046.00
2023-05-11T06:24:12.460Z,100048.22
2023-05-11T06:26:43.782Z,100049.81
2023-05-11T06:29:12.388Z,100038.69
2023-05-11T06:31:40.867Z,100042.47
2023-05-11T06:34:10.955Z,100056.53
2023-05-11T06:36:39.939Z,100057.00
2023-05-11T06:39:08.215Z,100057.50
2023-05-11T06:41:36.406Z,100058.19
2023-05-11T06:44:05.951Z,100059.31
2023-05-11T06:46:36.735Z,100051.13
2023-05-11T06:49:06.005Z,100059.00
2023-05-11T06:51:34.289Z,100053.59
2023-05-11T06:54:02.761Z,100053.44
2023-05-11T06:56:31.983Z,100051.78
2023-05-11T06:59:00.200Z,100051.78
2023-05-11T07:01:28.449Z,100052.69
2023-05-11T07:03:58.826Z,100049.44
2023-05-11T07:06:27.861Z,100057.25
2023-05-11T07:08:56.863Z,100042.50
2023-05-11T07:11:25.947Z,100038.53
2023-05-11T07:13:54.205Z,100043.59
2023-05-11T07:16:23.395Z,100043.19
2023-05-11T07:18:51.773Z,100036.63
2023-05-11T07:21:22.282Z,100046.12
2023-05-11T07:23:50.709Z,100035.81
2023-05-11T07:26:18.829Z,100040.44
2023-05-11T07:28:47.034Z,100040.09
2023-05-11T07:31:15.453Z,100043.56
2023-05-11T07:33:43.623Z,100037.13
2023-05-11T07:36:11.955Z,100045.53
2023-05-11T07:38:40.558Z,100039.47
2023-05-11T07:41:10.843Z,100044.47
2023-05-11T07:43:41.762Z,100043.03
2023-05-11T07:46:09.845Z,100041.59
2023-05-11T07:48:37.962Z,100039.53
2023-05-11T07:51:07.817Z,100031.94
2023-05-11T07:53:36.449Z,100037.72
2023-05-11T07:56:05.004Z,100033.47
2023-05-11T07:58:33.734Z,100034.16
2023-05-11T08:01:02.008Z,100033.94
2023-05-11T08:03:30.372Z,100038.53
2023-05-11T08:05:59.101Z,100038.41
2023-05-11T08:08:27.210Z,100034.34
2023-05-11T08:10:56.193Z,100029.06
2023-05-11T08:13:25.898Z,100038.41
2023-05-11T08:15:54.338Z,100034.13
2023-05-11T08:18:22.841Z,100027.00
2023-05-11T08:20:51.485Z,100026.19
2023-05-11T08:23:19.704Z,100023.13
2023-05-11T08:25:53.374Z,100023.00
2023-05-11T08:28:22.482Z,100023.25
2023-05-11T08:30:55.622Z,100020.44
2023-05-11T08:33:36.706Z,100014.72
2023-05-11T08:36:07.410Z,100010.28
2023-05-11T08:38:35.933Z,100003.56
2023-05-11T08:41:04.936Z,100014.28
2023-05-11T08:43:36.173Z,100010.91
2023-05-11T08:46:07.515Z,100004.22
2023-05-11T08:48:36.435Z,99999.94
2023-05-11T08:51:05.041Z,100001.53
2023-05-11T08:53:33.280Z,99997.91
2023-05-11T08:56:05.806Z,99996.25
2023-05-11T08:58:36.357Z,99985.69
2023-05-11T09:01:06.479Z,99980.22
2023-05-11T09:03:36.821Z,99975.31
2023-05-11T09:06:07.498Z,99975.59
2023-05-11T09:08:37.359Z,99973.31
2023-05-11T09:11:06.626Z,99973.84
2023-05-11T09:13:35.023Z,99962.16
2023-05-11T09:16:03.335Z,99971.81
2023-05-11T09:18:31.736Z,99969.63
2023-05-11T09:21:02.312Z,99964.06
2023-05-11T09:23:32.519Z,99956.28
2023-05-11T09:26:01.221Z,99957.97
2023-05-11T09:31:04.411Z,99947.94
2023-05-11T09:33:32.721Z,99954.50
2023-05-11T09:36:02.894Z,99945.13
2023-05-11T09:38:32.461Z,99942.91
2023-05-11T09:41:03.224Z,99944.81
2023-05-11T09:43:31.783Z,99948.03
2023-05-11T09:46:07.456Z,99934.34
2023-05-11T09:48:36.396Z,99941.56
2023-05-11T09:51:08.424Z,99930.34
2023-05-11T09:53:41.086Z,99939.56
2023-05-11T09:56:09.706Z,99943.34
2023-05-11T09:58:48.541Z,99933.75
2023-05-11T10:01:19.173Z,99933.25
2023-05-11T10:04:09.032Z,99923.94
2023-05-11T10:06:49.005Z,99928.88
2023-05-11T10:09:19.604Z,99928.16
2023-05-11T10:11:47.861Z,99918.53
2023-05-11T10:14:18.674Z,99926.47
2023-05-11T10:16:48.024Z,99923.06
2023-05-11T10:19:16.552Z,99919.25
2023-05-11T10:21:45.842Z,99923.34
2023-05-11T10:24:14.774Z,99921.97
2023-05-11T10:26:42.884Z,99899.88
2023-05-11T10:29:12.221Z,99918.13
2023-05-11T10:31:41.143Z,99910.81
2023-05-11T10:34:12.047Z,99909.47
2023-05-11T10:36:40.519Z,99897.13
2023-05-11T10:39:08.743Z,99903.31
2023-05-11T10:42:08.214Z,99904.34
2023-05-11T10:44:40.695Z,99905.03
2023-05-11T10:47:22.334Z,99908.13
2023-05-11T10:50:20.292Z,99883.69
2023-05-11T10:53:15.938Z,99891.75
2023-05-11T10:56:32.431Z,99895.03
2023-05-11T10:59:09.101Z,99890.09
2023-05-11T11:01:39.909Z,99879.13
2023-05-11T11:04:13.211Z,99881.41
2023-05-11T11:06:43.918Z,99882.28
2023-05-11T11:09:15.592Z,99884.56
2023-05-11T11:11:50.217Z,99871.53
2023-05-11T11:14:19.295Z,99876.16
2023-05-11T11:17:15.701Z,99866.50
2023-05-11T11:19:43.897Z,99853.88
2023-05-11T11:22:38.574Z,99880.50
2023-05-11T11:25:08.910Z,99866.59
2023-05-11T11:27:40.455Z,99875.41
2023-05-11T11:30:29.175Z,99861.00
2023-05-11T11:33:10.398Z,99869.63
2023-05-11T11:35:42.008Z,99866.03
2023-05-11T11:38:17.368Z,99863.78
2023-05-11T11:40:57.502Z,99855.87
2023-05-11T11:43:28.447Z,99863.41
2023-05-11T11:45:57.340Z,99858.91
2023-05-11T11:48:35.628Z,99874.00
2023-05-11T11:51:14.298Z,99865.19
2023-05-11T11:53:44.545Z,99854.75
2023-05-11T11:56:15.727Z,99850.00
2023-05-11T11:58:47.157Z,99844.16
2023-05-11T12:01:20.307Z,99856.22
2023-05-11T12:04:35.256Z,99857.81
2023-05-11T12:07:07.738Z,99856.00
2023-05-11T12:09:37.360Z,99850.69
2023-05-11T12:12:06.256Z,99841.56
2023-05-11T12:14:35.412Z,99838.63
2023-05-11T12:17:05.869Z,99835.25
2023-05-11T12:19:34.118Z,99848.25
2023-05-11T12:22:02.189Z,99837.53
2023-05-11T12:24:30.841Z,99835.31
2023-05-11T12:27:02.522Z,99830.75
2023-05-11T12:29:31.269Z,99832.50
2023-05-11T12:31:59.959Z,99829.56
2023-05-11T12:34:28.018Z,99820.00
2023-05-11T12:36:58.253Z,99826.37
2023-05-11T12:39:28.226Z,99824.47
2023-05-11T12:41:57.147Z,99815.44
2023-05-11T12:44:26.692Z,99819.47
2023-05-11T12:46:55.192Z,99827.00
2023-05-11T12:49:26.290Z,99825.59
2023-05-11T12:51:55.194Z,99814.19
2023-05-11T12:54:38.472Z,99810.50
2023-05-11T12:57:23.754Z,99819.09
2023-05-11T13:00:15.573Z,99811.37
2023-05-11T13:02:46.154Z,99815.91
2023-05-11T13:05:15.488Z,99824.47
2023-05-11T13:07:44.563Z,99812.50
2023-05-11T13:10:14.149Z,99814.12
2023-05-11T13:12:52.065Z,99803.97
2023-05-11T13:15:22.606Z,99803.94
2023-05-11T13:18:02.694Z,99799.28
2023-05-11T13:20:33.644Z,99792.06
2023-05-11T13:23:13.379Z,99789.47
2023-05-11T13:25:50.093Z,99796.19
2023-05-11T13:28:21.247Z,99782.88
2023-05-11T13:30:51.579Z,99780.34
2023-05-11T13:33:20.504Z,99794.44
2023-05-11T13:35:48.644Z,99780.72
2023-05-11T13:38:16.808Z,99788.19
2023-05-11T13:40:45.128Z,99777.88
2023-05-11T13:43:13.268Z,99777.69
2023-05-11T13:45:41.801Z,99775.03
2023-05-11T13:48:10.974Z,99774.22
2023-05-11T13:50:39.722Z,99757.94
2023-05-11T13:53:07.933Z,99757.25
2023-05-11T13:55:38.261Z,99760.44
2023-05-11T13:58:06.466Z,99769.94
2023-05-11T14:00:35.212Z,99765.84
2023-05-11T14:03:04.476Z,99743.53
2023-05-11T14:05:32.863Z,99748.81
2023-05-11T14:08:01.069Z,99746.34
2023-05-11T14:10:29.563Z,99756.41
2023-05-11T14:12:57.731Z,99746.19
2023-05-11T14:15:25.890Z,99734.37
2023-05-11T14:17:54.857Z,99745.88
2023-05-11T14:20:23.072Z,99739.44
2023-05-11T14:22:51.225Z,99741.78
2023-05-11T14:25:20.210Z,99733.84
2023-05-11T14:27:49.654Z,99736.63
2023-05-11T14:30:18.023Z,99739.88
2023-05-11T14:32:48.280Z,99736.63
2023-05-11T14:35:16.490Z,99732.19
2023-05-11T14:37:44.784Z,99733.63
2023-05-11T14:40:13.493Z,99731.50
2023-05-11T14:42:44.375Z,99742.03
2023-05-11T14:45:12.794Z,99736.56
2023-05-11T14:47:41.097Z,99730.09
2023-05-11T14:50:09.916Z,99735.44
2023-05-11T14:52:38.395Z,99729.16
2023-05-11T14:55:07.027Z,99726.94
2023-05-11T14:57:35.078Z,99729.56
2023-05-11T15:00:04.014Z,99728.13
2023-05-11T15:02:32.377Z,99725.59
2023-05-11T15:05:00.710Z,99722.41
2023-05-11T15:07:29.330Z,99721.56
2023-05-11T15:09:57.843Z,99728.50
2023-05-11T15:12:25.790Z,99717.16
2023-05-11T15:14:54.373Z,99723.06
2023-05-11T15:17:22.556Z,99724.00
2023-05-11T15:19:50.747Z,99720.88
2023-05-11T15:22:19.482Z,99723.94
2023-05-11T15:24:47.739Z,99721.34
2023-05-11T15:27:15.993Z,99730.25
2023-05-11T15:29:44.509Z,99729.84
2023-05-11T15:32:14.277Z,99724.56
2023-05-11T15:34:57.794Z,99737.62
2023-05-11T15:37:27.776Z,99729.38
2023-05-11T15:39:56.357Z,99735.28
2023-05-11T15:42:24.827Z,99725.97
2023-05-11T15:44:53.429Z,99730.66
2023-05-11T15:47:21.922Z,99736.72
2023-05-11T15:49:50.216Z,99726.59
2023-05-11T15:52:18.837Z,99738.81
2023-05-11T15:54:46.971Z,99729.84
2023-05-11T15:57:15.711Z,99724.56
2023-05-11T15:59:44.214Z,99729.28
2023-05-11T16:02:12.488Z,99735.34
2023-05-11T16:04:40.816Z,99737.19
2023-05-11T16:07:09.290Z,99738.16
2023-05-11T16:09:37.641Z,99740.22
2023-05-11T16:12:06.433Z,99737.78
2023-05-11T16:14:34.886Z,99741.06
2023-05-11T16:17:03.231Z,99742.47
2023-05-11T16:19:32.465Z,99737.59
2023-05-11T16:22:00.803Z,99738.00
2023-05-11T16:24:31.547Z,99736.38
2023-05-11T16:27:01.664Z,99732.31
2023-05-11T16:29:29.945Z,99740.63
2023-05-11T16:31:58.034Z,99742.28
2023-05-11T16:34:27.428Z,99748.56
2023-05-11T16:36:57.988Z,99745.72
2023-05-11T16:39:27.576Z,99752.44
2023-05-11T16:41:55.803Z,99755.66
2023-05-11T16:44:24.847Z,99754.03
2023-05-11T16:46:53.447Z,99758.91
2023-05-11T16:49:22.265Z,99763.16
2023-05-11T16:51:51.684Z,99760.50
2023-05-11T16:54:20.604Z,99758.09
2023-05-11T16:56:49.056Z,99768.62
2023-05-11T16:59:17.412Z,99769.44
2023-05-11T17:01:46.393Z,99763.56
2023-05-11T17:04:14.791Z,99761.72
2023-05-11T17:06:42.954Z,99758.88
2023-05-11T17:09:11.692Z,99762.91
2023-05-11T17:11:40.452Z,99769.22
2023-05-11T17:14:08.539Z,99774.47
2023-05-11T17:16:37.427Z,99773.69
2023-05-11T17:19:05.994Z,99773.78
2023-05-11T17:21:34.390Z,99773.75
2023-05-11T17:24:03.730Z,99776.56
2023-05-11T17:26:43.490Z,99780.44
2023-05-11T17:29:16.621Z,99770.84
2023-05-11T17:31:48.988Z,99784.59
2023-05-11T17:34:18.703Z,99784.09
2023-05-11T17:36:47.285Z,99775.84
2023-05-11T17:39:16.606Z,99778.91
2023-05-11T17:41:45.050Z,99779.91
2023-05-11T17:44:13.570Z,99790.56
2023-05-11T17:46:41.917Z,99790.53
2023-05-11T17:49:10.521Z,99790.19
2023-05-11T17:51:38.968Z,99785.19
2023-05-11T17:54:07.161Z,99789.13
2023-05-11T17:56:35.809Z,99799.25
2023-05-11T17:59:04.208Z,99802.41
2023-05-11T18:01:32.459Z,99802.63
2023-05-11T18:04:01.034Z,99811.09
2023-05-11T18:06:29.833Z,99813.47
2023-05-11T18:08:59.557Z,99814.81
2023-05-11T18:11:30.991Z,99818.47
2023-05-11T18:13:59.243Z,99821.38
2023-05-11T18:16:27.747Z,99820.72
2023-05-11T18:18:56.344Z,99826.66
2023-05-11T18:21:26.784Z,99837.22
2023-05-11T18:23:55.278Z,99830.72
2023-05-11T18:26:26.179Z,99839.13
2023-05-11T18:28:55.193Z,99851.19
2023-05-11T18:31:23.382Z,99850.16
2023-05-11T18:33:52.167Z,99853.16
2023-05-11T18:36:20.902Z,99860.41
2023-05-11T18:38:49.085Z,99861.22
2023-05-11T18:41:18.017Z,99870.47
2023-05-11T18:43:48.370Z,99869.19
2023-05-11T18:46:16.566Z,99884.13
2023-05-11T18:48:45.782Z,99878.09
2023-05-11T18:51:18.912Z,99884.88
2023-05-11T18:53:47.167Z,99891.34
2023-05-11T18:56:16.877Z,99895.31
2023-05-11T18:58:46.554Z,99897.22
2023-05-11T19:01:15.760Z,99896.00
2023-05-11T19:03:44.472Z,99906.03
2023-05-11T19:06:12.652Z,99911.97
2023-05-11T19:08:41.022Z,99912.31
2023-05-11T19:11:10.431Z,99914.47
2023-05-11T19:13:38.755Z,99927.59
2023-05-11T19:16:07.139Z,99926.25
2023-05-11T19:18:37.107Z,99921.53
2023-05-11T19:21:05.414Z,99924.16
2023-05-11T19:23:33.679Z,99938.66
2023-05-11T19:26:03.006Z,99945.88
2023-05-11T19:28:31.250Z,99943.62
2023-05-11T19:31:03.268Z,99948.53
2023-05-11T19:33:32.863Z,99952.00
2023-05-11T19:36:01.177Z,99960.53
2023-05-11T19:38:29.299Z,99949.44
2023-05-11T19:40:57.750Z,99958.97
2023-05-11T19:43:26.153Z,99958.78
2023-05-11T19:45:54.454Z,99966.81
2023-05-11T19:48:23.341Z,99962.91
2023-05-11T19:50:51.932Z,99967.66
2023-05-11T19:53:20.212Z,99963.59
2023-05-11T19:55:49.348Z,99977.81
2023-05-11T19:58:17.690Z,99973.13
2023-05-11T20:00:45.961Z,99970.00
2023-05-11T20:03:14.466Z,99973.47
2023-05-11T20:05:42.954Z,99977.84
2023-05-11T20:08:11.040Z,99970.81
2023-05-11T20:10:39.475Z,99974.56
2023-05-11T20:13:08.138Z,99972.59
2023-05-11T20:15:36.713Z,99967.69
2023-05-11T20:18:05.211Z,99979.63
2023-05-11T20:20:34.010Z,99973.62
2023-05-11T20:23:02.488Z,99965.41
2023-05-11T20:25:30.948Z,99977.50
2023-05-11T20:27:59.184Z,99978.16
2023-05-11T20:30:27.264Z,99979.78
2023-05-11T20:35:26.807Z,99983.53
2023-05-11T20:37:55.257Z,99977.81
2023-05-11T20:40:25.386Z,99980.41
2023-05-11T20:42:53.618Z,99975.16
2023-05-11T20:45:21.784Z,99981.69
2023-05-11T20:47:50.203Z,99975.06
2023-05-11T20:50:18.554Z,99983.25
2023-05-11T20:52:47.112Z,99978.00
2023-05-11T20:55:16.100Z,99978.78
2023-05-11T20:57:44.386Z,99981.28
2023-05-11T21:00:16.202Z,99986.09
2023-05-11T21:02:46.014Z,99987.25
2023-05-11T21:05:14.271Z,99991.94
2023-05-11T21:07:42.338Z,99996.09
2023-05-11T21:10:12.485Z,99982.19
2023-05-11T21:12:40.789Z,99989.69
2023-05-11T21:15:09.657Z,99986.22
2023-05-11T21:17:38.142Z,99981.75
2023-05-11T21:20:07.199Z,99988.44
2023-05-11T21:22:36.433Z,99984.06
2023-05-11T21:25:05.402Z,99980.88
2023-05-11T21:27:33.684Z,99983.81
2023-05-11T21:30:02.042Z,99978.34
2023-05-11T21:32:30.795Z,99986.41
2023-05-11T21:34:58.730Z,99980.91
2023-05-11T21:37:26.951Z,99993.59
2023-05-11T21:39:55.576Z,99995.75
2023-05-11T21:42:23.661Z,99996.41
2023-05-11T21:44:51.740Z,99993.41
2023-05-11T21:47:20.144Z,99989.72
2023-05-11T21:49:50.124Z,99993.34
2023-05-11T21:52:19.880Z,99999.25
2023-05-11T21:54:47.985Z,99998.12
2023-05-11T21:57:16.081Z,99997.44
2023-05-11T21:59:44.427Z,99992.38
2023-05-11T22:02:12.767Z,99991.47
2023-05-11T22:04:41.237Z,99989.69
2023-05-11T22:07:09.271Z,99989.59
2023-05-11T22:09:37.739Z,99989.31
2023-05-11T22:12:06.514Z,99987.47
2023-05-11T22:14:34.726Z,99984.84
2023-05-11T22:17:02.918Z,99985.75
2023-05-11T22:19:31.495Z,99975.81
2023-05-11T22:21:59.747Z,99989.44
2023-05-11T22:24:28.141Z,99991.41
2023-05-11T22:26:56.682Z,99992.31
2023-05-11T22:29:24.694Z,99995.38
2023-05-11T22:31:53.138Z,99990.28
2023-05-11T22:34:21.440Z,99989.44
2023-05-11T22:36:49.970Z,99995.94
2023-05-11T22:39:18.209Z,99999.09
2023-05-11T22:41:46.606Z,99988.72
2023-05-11T22:44:15.029Z,99997.72
2023-05-11T22:46:43.577Z,99999.31
2023-05-11T22:49:12.360Z,99985.34
2023-05-11T22:51:40.709Z,99985.94
2023-05-11T22:54:09.154Z,99994.25
2023-05-11T22:56:38.259Z,99988.56
2023-05-11T22:59:06.590Z,99993.63
2023-05-11T23:01:35.368Z,99991.97
2023-05-11T23:04:03.843Z,99990.41
2023-05-11T23:06:32.729Z,99988.25
2023-05-11T23:09:01.508Z,99987.75
2023-05-11T23:11:29.879Z,99985.59
2023-05-11T23:13:58.365Z,99981.53
2023-05-11T23:16:26.858Z,99992.19
2023-05-11T23:18:55.365Z,99992.19
2023-05-11T23:21:23.848Z,99992.19
2023-05-11T23:23:52.161Z,99991.06
2023-05-11T23:26:20.893Z,99993.19
2023-05-11T23:28:49.294Z,99983.38
2023-05-11T23:31:17.392Z,99986.25
2023-05-11T23:33:46.209Z,99987.78
2023-05-11T23:36:14.612Z,99990.03
2023-05-11T23:38:42.739Z,99984.72
2023-05-11T23:41:11.231Z,99978.00
2023-05-11T23:43:39.444Z,99987.13
2023-05-11T23:46:07.513Z,99974.41
2023-05-11T23:48:35.869Z,99981.75
2023-05-11T23:51:04.122Z,99977.56
2023-05-11T23:53:32.280Z,99975.72
2023-05-11T23:56:00.644Z,99976.84
2023-05-11T23:58:28.772Z,99979.13
